Terminal Aerodrome Forecast
Issued by NWS Shreveport, LA

Home | Current Version | Previous Version | Text Only | Print | Product List | Glossary On
Versions: 1 2 3 4 5 6 7 8 9 10 11 12 13 14 15 16 17 18 19
000
FTUS44 KSHV 211700
TAFMLU
TAF
KMLU 211720Z 2118/2218 04005KT P6SM SCT045
     FM220000 VRB03KT P6SM SKC
      TEMPO 2208/2212 1SM BR
     FM221300 05007KT P6SM SKC=

USA.gov is the U.S. government's official web portal to all federal, state and local government web resources and services.